sensor_id;sensor_type;location;lat;lon;timestamp;P1;durP1;ratioP1;P2;durP2;ratioP2
5533;SDS011;2789;51.902;7.636;2022-08-01T00:00:25;12.05;;;6.80;;
5533;SDS011;2789;51.902;7.636;2022-08-01T00:01:27;6.28;;;5.05;;
5533;SDS011;2789;51.902;7.636;2022-08-01T00:02:29;14.95;;;7.95;;
5533;SDS011;2789;51.902;7.636;2022-08-01T00:03:32;12.98;;;8.13;;
5533;SDS011;2789;51.902;7.636;2022-08-01T00:04:35;12.50;;;7.55;;
5533;SDS011;2789;51.902;7.636;2022-08-01T00:05:36;11.00;;;8.15;;
5533;SDS011;2789;51.902;7.636;2022-08-01T00:06:40;13.20;;;9.18;;
5533;SDS011;2789;51.902;7.636;2022-08-01T00:07:42;11.90;;;8.43;;
5533;SDS011;2789;51.902;7.636;2022-08-01T00:08:45;13.18;;;8.00;;
5533;SDS011;2789;51.902;7.636;2022-08-01T00:09:47;13.38;;;8.63;;
5533;SDS011;2789;51.902;7.636;2022-08-01T00:10:50;12.48;;;8.57;;
5533;SDS011;2789;51.902;7.636;2022-08-01T00:11:51;11.13;;;7.90;;
5533;SDS011;2789;51.902;7.636;2022-08-01T00:13:09;13.13;;;9.27;;
5533;SDS011;2789;51.902;7.636;2022-08-01T00:14:14;16.77;;;10.25;;
5533;SDS011;2789;51.902;7.636;2022-08-01T00:15:16;11.18;;;8.70;;
5533;SDS011;2789;51.902;7.636;2022-08-01T00:16:18;15.77;;;9.40;;
5533;SDS011;2789;51.902;7.636;2022-08-01T00:17:23;14.43;;;9.27;;
5533;SDS011;2789;51.902;7.636;2022-08-01T00:18:26;11.45;;;8.57;;
5533;SDS011;2789;51.902;7.636;2022-08-01T00:19:27;13.52;;;9.65;;
5533;SDS011;2789;51.902;7.636;2022-08-01T00:20:30;13.05;;;9.07;;
5533;SDS011;2789;51.902;7.636;2022-08-01T00:21:31;14.48;;;10.93;;
5533;SDS011;2789;51.902;7.636;2022-08-01T00:22:35;15.50;;;10.52;;
5533;SDS011;2789;51.902;7.636;2022-08-01T00:23:37;17.10;;;9.90;;
5533;SDS011;2789;51.902;7.636;2022-08-01T00:24:40;15.82;;;10.23;;
5533;SDS011;2789;51.902;7.636;2022-08-01T00:25:42;16.42;;;10.60;;
5533;SDS011;2789;51.902;7.636;2022-08-01T00:26:44;15.75;;;9.30;;
5533;SDS011;2789;51.902;7.636;2022-08-01T00:27:47;16.77;;;10.75;;
5533;SDS011;2789;51.902;7.636;2022-08-01T00:28:48;15.23;;;8.73;;
5533;SDS011;2789;51.902;7.636;2022-08-01T00:29:51;22.23;;;12.85;;
5533;SDS011;2789;51.902;7.636;2022-08-01T00:31:12;12.77;;;8.80;;
5533;SDS011;2789;51.902;7.636;2022-08-01T00:32:15;15.88;;;10.60;;
5533;SDS011;2789;51.902;7.636;2022-08-01T00:33:17;16.90;;;10.88;;
5533;SDS011;2789;51.902;7.636;2022-08-01T00:34:19;18.52;;;10.75;;
5533;SDS011;2789;51.902;7.636;2022-08-01T00:35:22;14.40;;;10.90;;
5533;SDS011;2789;51.902;7.636;2022-08-01T00:36:24;14.35;;;10.55;;
5533;SDS011;2789;51.902;7.636;2022-08-01T00:37:26;17.15;;;10.02;;
5533;SDS011;2789;51.902;7.636;2022-08-01T00:38:29;19.63;;;10.60;;
5533;SDS011;2789;51.902;7.636;2022-08-01T00:39:32;16.80;;;10.25;;
5533;SDS011;2789;51.902;7.636;2022-08-01T00:40:34;13.25;;;9.82;;
5533;SDS011;2789;51.902;7.636;2022-08-01T00:41:37;16.05;;;10.23;;
5533;SDS011;2789;51.902;7.636;2022-08-01T00:42:39;14.50;;;9.15;;
5533;SDS011;2789;51.902;7.636;2022-08-01T00:43:44;14.65;;;9.95;;
5533;SDS011;2789;51.902;7.636;2022-08-01T00:44:46;15.63;;;9.68;;
5533;SDS011;2789;51.902;7.636;2022-08-01T00:45:48;17.60;;;8.68;;
5533;SDS011;2789;51.902;7.636;2022-08-01T00:46:51;16.58;;;8.77;;
5533;SDS011;2789;51.902;7.636;2022-08-01T00:47:52;14.93;;;8.88;;
5533;SDS011;2789;51.902;7.636;2022-08-01T00:48:56;12.77;;;9.35;;
5533;SDS011;2789;51.902;7.636;2022-08-01T00:49:58;12.40;;;8.30;;
5533;SDS011;2789;51.902;7.636;2022-08-01T00:51:01;13.98;;;8.50;;
5533;SDS011;2789;51.902;7.636;2022-08-01T00:52:03;14.55;;;8.18;;
5533;SDS011;2789;51.902;7.636;2022-08-01T00:53:08;14.07;;;8.43;;
5533;SDS011;2789;51.902;7.636;2022-08-01T00:54:20;12.80;;;8.35;;
5533;SDS011;2789;51.902;7.636;2022-08-01T00:55:23;14.02;;;8.75;;
5533;SDS011;2789;51.902;7.636;2022-08-01T00:56:25;20.17;;;8.65;;
5533;SDS011;2789;51.902;7.636;2022-08-01T00:57:28;13.30;;;9.23;;
5533;SDS011;2789;51.902;7.636;2022-08-01T00:58:50;12.18;;;8.00;;
5533;SDS011;2789;51.902;7.636;2022-08-01T00:59:53;11.75;;;7.53;;
5533;SDS011;2789;51.902;7.636;2022-08-01T01:00:55;12.88;;;7.80;;
5533;SDS011;2789;51.902;7.636;2022-08-01T01:01:58;17.00;;;7.80;;
5533;SDS011;2789;51.902;7.636;2022-08-01T01:03:01;12.65;;;7.70;;
5533;SDS011;2789;51.902;7.636;2022-08-01T01:04:03;13.05;;;7.72;;
5533;SDS011;2789;51.902;7.636;2022-08-01T01:05:09;9.70;;;6.90;;
5533;SDS011;2789;51.902;7.636;2022-08-01T01:06:17;9.85;;;6.72;;
5533;SDS011;2789;51.902;7.636;2022-08-01T01:07:31;14.73;;;7.93;;
5533;SDS011;2789;51.902;7.636;2022-08-01T01:08:38;12.25;;;7.43;;
5533;SDS011;2789;51.902;7.636;2022-08-01T01:09:44;10.85;;;6.72;;
5533;SDS011;2789;51.902;7.636;2022-08-01T01:10:52;12.23;;;6.63;;
5533;SDS011;2789;51.902;7.636;2022-08-01T01:12:02;9.98;;;6.55;;
5533;SDS011;2789;51.902;7.636;2022-08-01T01:13:11;9.93;;;6.78;;
5533;SDS011;2789;51.902;7.636;2022-08-01T01:14:18;10.90;;;6.68;;
5533;SDS011;2789;51.902;7.636;2022-08-01T01:15:26;13.23;;;6.88;;
5533;SDS011;2789;51.902;7.636;2022-08-01T01:16:30;14.73;;;7.43;;
5533;SDS011;2789;51.902;7.636;2022-08-01T01:17:37;9.05;;;6.50;;
5533;SDS011;2789;51.902;7.636;2022-08-01T01:18:53;10.63;;;6.85;;
5533;SDS011;2789;51.902;7.636;2022-08-01T01:19:57;11.18;;;7.05;;
5533;SDS011;2789;51.902;7.636;2022-08-01T01:21:03;8.45;;;6.78;;
5533;SDS011;2789;51.902;7.636;2022-08-01T01:22:21;12.38;;;6.85;;
5533;SDS011;2789;51.902;7.636;2022-08-01T01:23:28;10.73;;;7.18;;
5533;SDS011;2789;51.902;7.636;2022-08-01T01:24:45;10.48;;;7.00;;
5533;SDS011;2789;51.902;7.636;2022-08-01T01:26:01;9.38;;;5.78;;
5533;SDS011;2789;51.902;7.636;2022-08-01T01:27:16;12.65;;;7.20;;
5533;SDS011;2789;51.902;7.636;2022-08-01T01:28:20;9.55;;;6.50;;
5533;SDS011;2789;51.902;7.636;2022-08-01T01:29:31;11.50;;;6.85;;
5533;SDS011;2789;51.902;7.636;2022-08-01T01:30:55;9.30;;;6.13;;
5533;SDS011;2789;51.902;7.636;2022-08-01T01:32:02;10.68;;;6.47;;
5533;SDS011;2789;51.902;7.636;2022-08-01T01:33:07;10.88;;;6.38;;
5533;SDS011;2789;51.902;7.636;2022-08-01T01:34:12;10.38;;;6.95;;
5533;SDS011;2789;51.902;7.636;2022-08-01T01:35:16;11.15;;;6.78;;
5533;SDS011;2789;51.902;7.636;2022-08-01T01:36:20;11.30;;;6.07;;
5533;SDS011;2789;51.902;7.636;2022-08-01T01:37:23;13.52;;;7.13;;
5533;SDS011;2789;51.902;7.636;2022-08-01T01:38:28;10.38;;;6.07;;
5533;SDS011;2789;51.902;7.636;2022-08-01T01:39:31;8.77;;;5.85;;
5533;SDS011;2789;51.902;7.636;2022-08-01T01:40:34;9.45;;;6.53;;
5533;SDS011;2789;51.902;7.636;2022-08-01T01:41:37;12.57;;;6.65;;
5533;SDS011;2789;51.902;7.636;2022-08-01T01:42:41;10.27;;;6.75;;
5533;SDS011;2789;51.902;7.636;2022-08-01T01:43:43;10.63;;;6.63;;
5533;SDS011;2789;51.902;7.636;2022-08-01T01:44:48;8.27;;;6.18;;
5533;SDS011;2789;51.902;7.636;2022-08-01T01:45:51;7.45;;;5.57;;
5533;SDS011;2789;51.902;7.636;2022-08-01T01:46:54;11.75;;;6.55;;
5533;SDS011;2789;51.902;7.636;2022-08-01T01:47:57;7.55;;;6.18;;
5533;SDS011;2789;51.902;7.636;2022-08-01T01:49:01;10.63;;;5.90;;
5533;SDS011;2789;51.902;7.636;2022-08-01T01:50:04;9.32;;;6.22;;
5533;SDS011;2789;51.902;7.636;2022-08-01T01:51:07;10.45;;;6.55;;
5533;SDS011;2789;51.902;7.636;2022-08-01T01:52:10;10.75;;;6.88;;
5533;SDS011;2789;51.902;7.636;2022-08-01T01:53:15;9.82;;;6.78;;
5533;SDS011;2789;51.902;7.636;2022-08-01T01:54:20;7.90;;;5.97;;
5533;SDS011;2789;51.902;7.636;2022-08-01T01:55:24;12.50;;;6.47;;
5533;SDS011;2789;51.902;7.636;2022-08-01T01:56:27;8.93;;;5.72;;
5533;SDS011;2789;51.902;7.636;2022-08-01T01:57:30;8.15;;;5.47;;
5533;SDS011;2789;51.902;7.636;2022-08-01T01:58:33;10.20;;;6.15;;
5533;SDS011;2789;51.902;7.636;2022-08-01T01:59:36;8.18;;;5.88;;
5533;SDS011;2789;51.902;7.636;2022-08-01T02:00:42;7.75;;;5.30;;
5533;SDS011;2789;51.902;7.636;2022-08-01T02:01:46;8.73;;;6.10;;
5533;SDS011;2789;51.902;7.636;2022-08-01T02:03:08;8.07;;;5.82;;
5533;SDS011;2789;51.902;7.636;2022-08-01T02:04:13;9.38;;;6.53;;
5533;SDS011;2789;51.902;7.636;2022-08-01T02:05:15;8.50;;;5.65;;
5533;SDS011;2789;51.902;7.636;2022-08-01T02:06:17;10.30;;;6.53;;
5533;SDS011;2789;51.902;7.636;2022-08-01T02:07:21;8.52;;;6.35;;
5533;SDS011;2789;51.902;7.636;2022-08-01T02:08:24;8.35;;;5.95;;
5533;SDS011;2789;51.902;7.636;2022-08-01T02:09:26;9.20;;;6.00;;
5533;SDS011;2789;51.902;7.636;2022-08-01T02:10:31;12.15;;;6.75;;
5533;SDS011;2789;51.902;7.636;2022-08-01T02:11:33;11.80;;;6.75;;
5533;SDS011;2789;51.902;7.636;2022-08-01T02:12:37;8.95;;;6.00;;
5533;SDS011;2789;51.902;7.636;2022-08-01T02:13:40;9.32;;;6.22;;
5533;SDS011;2789;51.902;7.636;2022-08-01T02:14:43;12.05;;;6.65;;
5533;SDS011;2789;51.902;7.636;2022-08-01T02:15:48;10.13;;;6.18;;
5533;SDS011;2789;51.902;7.636;2022-08-01T02:17:00;7.75;;;6.20;;
5533;SDS011;2789;51.902;7.636;2022-08-01T02:18:05;13.32;;;6.45;;
5533;SDS011;2789;51.902;7.636;2022-08-01T02:19:07;11.65;;;6.50;;
5533;SDS011;2789;51.902;7.636;2022-08-01T02:20:12;12.57;;;8.18;;
5533;SDS011;2789;51.902;7.636;2022-08-01T02:21:15;12.02;;;7.68;;
5533;SDS011;2789;51.902;7.636;2022-08-01T02:22:21;12.85;;;7.78;;
5533;SDS011;2789;51.902;7.636;2022-08-01T02:23:27;10.73;;;7.10;;
5533;SDS011;2789;51.902;7.636;2022-08-01T02:24:32;13.10;;;7.47;;
5533;SDS011;2789;51.902;7.636;2022-08-01T02:25:38;13.75;;;8.05;;
5533;SDS011;2789;51.902;7.636;2022-08-01T02:27:04;10.45;;;7.75;;
5533;SDS011;2789;51.902;7.636;2022-08-01T02:28:10;12.52;;;7.70;;
5533;SDS011;2789;51.902;7.636;2022-08-01T02:29:15;11.25;;;7.35;;
5533;SDS011;2789;51.902;7.636;2022-08-01T02:30:20;10.75;;;6.80;;
5533;SDS011;2789;51.902;7.636;2022-08-01T02:31:26;12.05;;;7.45;;
5533;SDS011;2789;51.902;7.636;2022-08-01T02:32:30;9.93;;;7.00;;
5533;SDS011;2789;51.902;7.636;2022-08-01T02:33:34;10.07;;;6.60;;
5533;SDS011;2789;51.902;7.636;2022-08-01T02:34:39;18.92;;;8.75;;
5533;SDS011;2789;51.902;7.636;2022-08-01T02:35:43;12.77;;;7.13;;
5533;SDS011;2789;51.902;7.636;2022-08-01T02:37:08;9.25;;;6.38;;
5533;SDS011;2789;51.902;7.636;2022-08-01T02:38:12;10.15;;;7.07;;
5533;SDS011;2789;51.902;7.636;2022-08-01T02:39:16;11.55;;;7.50;;
5533;SDS011;2789;51.902;7.636;2022-08-01T02:40:20;10.85;;;7.25;;
5533;SDS011;2789;51.902;7.636;2022-08-01T02:41:23;12.02;;;6.50;;
5533;SDS011;2789;51.902;7.636;2022-08-01T02:42:27;12.02;;;7.90;;
5533;SDS011;2789;51.902;7.636;2022-08-01T02:43:29;9.90;;;7.38;;
5533;SDS011;2789;51.902;7.636;2022-08-01T02:44:35;11.65;;;7.40;;
5533;SDS011;2789;51.902;7.636;2022-08-01T02:45:41;10.27;;;7.35;;
5533;SDS011;2789;51.902;7.636;2022-08-01T02:46:48;11.45;;;6.93;;
5533;SDS011;2789;51.902;7.636;2022-08-01T02:47:52;9.32;;;6.70;;
5533;SDS011;2789;51.902;7.636;2022-08-01T02:48:56;11.95;;;7.70;;
5533;SDS011;2789;51.902;7.636;2022-08-01T02:50:00;11.02;;;7.15;;
5533;SDS011;2789;51.902;7.636;2022-08-01T02:51:03;10.98;;;6.68;;
5533;SDS011;2789;51.902;7.636;2022-08-01T02:52:06;10.45;;;6.68;;
5533;SDS011;2789;51.902;7.636;2022-08-01T02:53:13;12.45;;;7.03;;
5533;SDS011;2789;51.902;7.636;2022-08-01T02:54:17;10.70;;;6.40;;
5533;SDS011;2789;51.902;7.636;2022-08-01T02:55:20;12.85;;;7.20;;
5533;SDS011;2789;51.902;7.636;2022-08-01T02:56:23;12.80;;;8.43;;
5533;SDS011;2789;51.902;7.636;2022-08-01T02:57:35;12.27;;;7.00;;
5533;SDS011;2789;51.902;7.636;2022-08-01T02:58:52;10.85;;;6.20;;
5533;SDS011;2789;51.902;7.636;2022-08-01T02:59:56;12.50;;;6.97;;
5533;SDS011;2789;51.902;7.636;2022-08-01T03:00:58;10.70;;;6.80;;
5533;SDS011;2789;51.902;7.636;2022-08-01T03:02:04;9.27;;;6.10;;
5533;SDS011;2789;51.902;7.636;2022-08-01T03:03:10;13.05;;;6.65;;
5533;SDS011;2789;51.902;7.636;2022-08-01T03:04:16;9.10;;;6.70;;
5533;SDS011;2789;51.902;7.636;2022-08-01T03:05:18;10.18;;;6.10;;
5533;SDS011;2789;51.902;7.636;2022-08-01T03:06:22;10.35;;;6.85;;
5533;SDS011;2789;51.902;7.636;2022-08-01T03:07:24;10.52;;;6.75;;
5533;SDS011;2789;51.902;7.636;2022-08-01T03:08:39;10.25;;;6.20;;
5533;SDS011;2789;51.902;7.636;2022-08-01T03:09:42;9.75;;;6.60;;
5533;SDS011;2789;51.902;7.636;2022-08-01T03:10:45;11.88;;;6.82;;
5533;SDS011;2789;51.902;7.636;2022-08-01T03:11:48;12.88;;;7.30;;
5533;SDS011;2789;51.902;7.636;2022-08-01T03:12:52;10.32;;;6.30;;
5533;SDS011;2789;51.902;7.636;2022-08-01T03:13:54;12.43;;;8.43;;
5533;SDS011;2789;51.902;7.636;2022-08-01T03:14:58;10.65;;;6.82;;
5533;SDS011;2789;51.902;7.636;2022-08-01T03:16:01;12.10;;;7.60;;
5533;SDS011;2789;51.902;7.636;2022-08-01T03:17:06;10.25;;;6.05;;
5533;SDS011;2789;51.902;7.636;2022-08-01T03:18:09;11.07;;;7.05;;
5533;SDS011;2789;51.902;7.636;2022-08-01T03:19:13;13.15;;;7.70;;
5533;SDS011;2789;51.902;7.636;2022-08-01T03:20:15;9.75;;;5.97;;
5533;SDS011;2789;51.902;7.636;2022-08-01T03:21:19;12.10;;;7.07;;
5533;SDS011;2789;51.902;7.636;2022-08-01T03:22:22;10.50;;;6.53;;
5533;SDS011;2789;51.902;7.636;2022-08-01T03:23:26;12.38;;;7.70;;
5533;SDS011;2789;51.902;7.636;2022-08-01T03:24:39;8.88;;;6.53;;
5533;SDS011;2789;51.902;7.636;2022-08-01T03:25:43;13.65;;;7.70;;
5533;SDS011;2789;51.902;7.636;2022-08-01T03:26:45;10.20;;;7.85;;
5533;SDS011;2789;51.902;7.636;2022-08-01T03:27:50;10.65;;;6.95;;
5533;SDS011;2789;51.902;7.636;2022-08-01T03:28:55;10.60;;;7.03;;
5533;SDS011;2789;51.902;7.636;2022-08-01T03:30:02;17.95;;;8.43;;
5533;SDS011;2789;51.902;7.636;2022-08-01T03:31:06;15.82;;;7.85;;
5533;SDS011;2789;51.902;7.636;2022-08-01T03:32:10;12.90;;;8.13;;
5533;SDS011;2789;51.902;7.636;2022-08-01T03:33:12;10.43;;;6.68;;
5533;SDS011;2789;51.902;7.636;2022-08-01T03:34:15;12.68;;;7.38;;
5533;SDS011;2789;51.902;7.636;2022-08-01T03:35:17;10.13;;;6.72;;
5533;SDS011;2789;51.902;7.636;2022-08-01T03:36:20;13.70;;;6.88;;
5533;SDS011;2789;51.902;7.636;2022-08-01T03:37:28;10.48;;;6.97;;
5533;SDS011;2789;51.902;7.636;2022-08-01T03:38:33;13.85;;;7.15;;
5533;SDS011;2789;51.902;7.636;2022-08-01T03:39:41;12.55;;;6.18;;
5533;SDS011;2789;51.902;7.636;2022-08-01T03:40:47;11.40;;;6.35;;
5533;SDS011;2789;51.902;7.636;2022-08-01T03:41:53;12.68;;;6.50;;
5533;SDS011;2789;51.902;7.636;2022-08-01T03:42:58;11.60;;;6.82;;
5533;SDS011;2789;51.902;7.636;2022-08-01T03:44:03;9.35;;;6.30;;
5533;SDS011;2789;51.902;7.636;2022-08-01T03:45:07;8.60;;;6.25;;
5533;SDS011;2789;51.902;7.636;2022-08-01T03:46:16;10.00;;;6.10;;
5533;SDS011;2789;51.902;7.636;2022-08-01T03:47:21;13.45;;;6.30;;
5533;SDS011;2789;51.902;7.636;2022-08-01T03:48:27;9.20;;;6.32;;
5533;SDS011;2789;51.902;7.636;2022-08-01T03:49:30;7.40;;;6.15;;
5533;SDS011;2789;51.902;7.636;2022-08-01T03:50:34;8.77;;;6.13;;
5533;SDS011;2789;51.902;7.636;2022-08-01T03:51:37;8.70;;;5.97;;
5533;SDS011;2789;51.902;7.636;2022-08-01T03:52:41;9.30;;;6.20;;
5533;SDS011;2789;51.902;7.636;2022-08-01T03:53:45;9.57;;;6.53;;
5533;SDS011;2789;51.902;7.636;2022-08-01T03:54:49;12.35;;;6.80;;
5533;SDS011;2789;51.902;7.636;2022-08-01T03:55:53;9.63;;;5.97;;
5533;SDS011;2789;51.902;7.636;2022-08-01T03:56:56;9.82;;;5.65;;
5533;SDS011;2789;51.902;7.636;2022-08-01T03:57:58;9.02;;;6.43;;
5533;SDS011;2789;51.902;7.636;2022-08-01T03:59:01;10.63;;;5.90;;
5533;SDS011;2789;51.902;7.636;2022-08-01T04:00:05;9.70;;;6.25;;
5533;SDS011;2789;51.902;7.636;2022-08-01T04:01:10;9.57;;;5.40;;
5533;SDS011;2789;51.902;7.636;2022-08-01T04:02:16;8.05;;;5.20;;
5533;SDS011;2789;51.902;7.636;2022-08-01T04:03:24;7.68;;;5.50;;
5533;SDS011;2789;51.902;7.636;2022-08-01T04:04:26;7.95;;;5.38;;
5533;SDS011;2789;51.902;7.636;2022-08-01T04:05:30;9.40;;;5.50;;
5533;SDS011;2789;51.902;7.636;2022-08-01T04:06:32;8.77;;;5.00;;
5533;SDS011;2789;51.902;7.636;2022-08-01T04:07:35;9.52;;;5.65;;
5533;SDS011;2789;51.902;7.636;2022-08-01T04:08:37;8.30;;;4.78;;
5533;SDS011;2789;51.902;7.636;2022-08-01T04:09:41;8.80;;;5.63;;
5533;SDS011;2789;51.902;7.636;2022-08-01T04:10:43;8.73;;;5.80;;
5533;SDS011;2789;51.902;7.636;2022-08-01T04:11:46;6.60;;;4.80;;
5533;SDS011;2789;51.902;7.636;2022-08-01T04:12:48;6.53;;;4.93;;
5533;SDS011;2789;51.902;7.636;2022-08-01T04:13:51;10.00;;;6.82;;
5533;SDS011;2789;51.902;7.636;2022-08-01T04:14:55;7.03;;;4.72;;
5533;SDS011;2789;51.902;7.636;2022-08-01T04:15:58;9.32;;;5.65;;
5533;SDS011;2789;51.902;7.636;2022-08-01T04:16:59;8.75;;;5.18;;
5533;SDS011;2789;51.902;7.636;2022-08-01T04:18:02;10.00;;;5.65;;
5533;SDS011;2789;51.902;7.636;2022-08-01T04:19:05;6.85;;;4.70;;
5533;SDS011;2789;51.902;7.636;2022-08-01T04:20:09;7.28;;;5.20;;
5533;SDS011;2789;51.902;7.636;2022-08-01T04:21:14;9.85;;;5.55;;
5533;SDS011;2789;51.902;7.636;2022-08-01T04:22:18;8.60;;;5.43;;
5533;SDS011;2789;51.902;7.636;2022-08-01T04:23:21;7.18;;;4.90;;
5533;SDS011;2789;51.902;7.636;2022-08-01T04:24:25;9.80;;;4.30;;
5533;SDS011;2789;51.902;7.636;2022-08-01T04:25:29;5.65;;;4.18;;
5533;SDS011;2789;51.902;7.636;2022-08-01T04:26:36;11.93;;;5.88;;
5533;SDS011;2789;51.902;7.636;2022-08-01T04:27:38;8.30;;;5.30;;
5533;SDS011;2789;51.902;7.636;2022-08-01T04:28:52;7.47;;;4.65;;
5533;SDS011;2789;51.902;7.636;2022-08-01T04:29:54;10.75;;;5.00;;
5533;SDS011;2789;51.902;7.636;2022-08-01T04:30:58;10.93;;;5.10;;
5533;SDS011;2789;51.902;7.636;2022-08-01T04:32:02;9.18;;;4.30;;
5533;SDS011;2789;51.902;7.636;2022-08-01T04:33:06;7.43;;;5.22;;
5533;SDS011;2789;51.902;7.636;2022-08-01T04:34:11;8.10;;;4.75;;
5533;SDS011;2789;51.902;7.636;2022-08-01T04:35:16;7.30;;;4.65;;
5533;SDS011;2789;51.902;7.636;2022-08-01T04:36:23;7.15;;;4.05;;
5533;SDS011;2789;51.902;7.636;2022-08-01T04:37:28;7.63;;;4.72;;
5533;SDS011;2789;51.902;7.636;2022-08-01T04:38:30;5.72;;;4.05;;
5533;SDS011;2789;51.902;7.636;2022-08-01T04:39:35;7.28;;;3.97;;
5533;SDS011;2789;51.902;7.636;2022-08-01T04:40:51;12.18;;;4.68;;
5533;SDS011;2789;51.902;7.636;2022-08-01T04:41:54;6.60;;;3.78;;
5533;SDS011;2789;51.902;7.636;2022-08-01T04:42:57;6.28;;;5.03;;
5533;SDS011;2789;51.902;7.636;2022-08-01T04:44:00;5.53;;;3.78;;
5533;SDS011;2789;51.902;7.636;2022-08-01T04:45:01;6.43;;;4.13;;
5533;SDS011;2789;51.902;7.636;2022-08-01T04:46:06;6.38;;;4.47;;
5533;SDS011;2789;51.902;7.636;2022-08-01T04:47:08;9.90;;;4.32;;
5533;SDS011;2789;51.902;7.636;2022-08-01T04:48:11;5.78;;;3.95;;
5533;SDS011;2789;51.902;7.636;2022-08-01T04:49:16;7.20;;;4.35;;
5533;SDS011;2789;51.902;7.636;2022-08-01T04:50:19;8.50;;;5.40;;
5533;SDS011;2789;51.902;7.636;2022-08-01T04:51:22;7.88;;;4.78;;
5533;SDS011;2789;51.902;7.636;2022-08-01T04:52:32;7.78;;;4.65;;
5533;SDS011;2789;51.902;7.636;2022-08-01T04:53:34;6.82;;;4.05;;
5533;SDS011;2789;51.902;7.636;2022-08-01T04:54:37;5.65;;;4.03;;
5533;SDS011;2789;51.902;7.636;2022-08-01T04:55:38;5.80;;;3.75;;
5533;SDS011;2789;51.902;7.636;2022-08-01T04:56:41;6.78;;;4.40;;
5533;SDS011;2789;51.902;7.636;2022-08-01T04:57:43;6.68;;;4.28;;
5533;SDS011;2789;51.902;7.636;2022-08-01T04:58:47;9.90;;;4.40;;
5533;SDS011;2789;51.902;7.636;2022-08-01T04:59:48;6.30;;;4.10;;
5533;SDS011;2789;51.902;7.636;2022-08-01T05:00:57;6.30;;;4.50;;
5533;SDS011;2789;51.902;7.636;2022-08-01T05:01:59;6.57;;;3.95;;
5533;SDS011;2789;51.902;7.636;2022-08-01T05:03:02;4.93;;;3.40;;
5533;SDS011;2789;51.902;7.636;2022-08-01T05:04:04;7.75;;;3.97;;
5533;SDS011;2789;51.902;7.636;2022-08-01T05:05:08;6.45;;;4.13;;
5533;SDS011;2789;51.902;7.636;2022-08-01T05:06:13;4.85;;;3.58;;
5533;SDS011;2789;51.902;7.636;2022-08-01T05:07:16;4.93;;;3.50;;
5533;SDS011;2789;51.902;7.636;2022-08-01T05:08:18;4.82;;;3.30;;
5533;SDS011;2789;51.902;7.636;2022-08-01T05:09:20;6.57;;;3.70;;
5533;SDS011;2789;51.902;7.636;2022-08-01T05:10:23;6.53;;;3.58;;
5533;SDS011;2789;51.902;7.636;2022-08-01T05:11:24;4.85;;;3.55;;
5533;SDS011;2789;51.902;7.636;2022-08-01T05:12:27;6.00;;;3.22;;
5533;SDS011;2789;51.902;7.636;2022-08-01T05:13:28;7.65;;;3.50;;
5533;SDS011;2789;51.902;7.636;2022-08-01T05:14:32;6.75;;;3.70;;
5533;SDS011;2789;51.902;7.636;2022-08-01T05:15:34;3.80;;;3.40;;
5533;SDS011;2789;51.902;7.636;2022-08-01T05:16:37;4.30;;;3.25;;
5533;SDS011;2789;51.902;7.636;2022-08-01T05:17:39;5.90;;;3.00;;
5533;SDS011;2789;51.902;7.636;2022-08-01T05:18:43;6.05;;;3.85;;
5533;SDS011;2789;51.902;7.636;2022-08-01T05:19:47;5.00;;;3.60;;
5533;SDS011;2789;51.902;7.636;2022-08-01T05:20:51;6.88;;;3.85;;
5533;SDS011;2789;51.902;7.636;2022-08-01T05:21:53;6.35;;;3.97;;
5533;SDS011;2789;51.902;7.636;2022-08-01T05:23:00;7.47;;;4.05;;
5533;SDS011;2789;51.902;7.636;2022-08-01T05:24:03;5.07;;;3.70;;
5533;SDS011;2789;51.902;7.636;2022-08-01T05:25:05;4.88;;;2.95;;
5533;SDS011;2789;51.902;7.636;2022-08-01T05:26:09;4.55;;;3.60;;
5533;SDS011;2789;51.902;7.636;2022-08-01T05:27:14;6.45;;;4.18;;
5533;SDS011;2789;51.902;7.636;2022-08-01T05:28:19;6.00;;;4.15;;
5533;SDS011;2789;51.902;7.636;2022-08-01T05:29:21;5.05;;;3.65;;
5533;SDS011;2789;51.902;7.636;2022-08-01T05:30:23;4.05;;;3.40;;
5533;SDS011;2789;51.902;7.636;2022-08-01T05:31:25;4.35;;;3.10;;
5533;SDS011;2789;51.902;7.636;2022-08-01T05:32:28;5.65;;;3.03;;
5533;SDS011;2789;51.902;7.636;2022-08-01T05:33:31;3.78;;;3.20;;
5533;SDS011;2789;51.902;7.636;2022-08-01T05:34:33;3.97;;;3.20;;
5533;SDS011;2789;51.902;7.636;2022-08-01T05:35:36;5.25;;;3.53;;
5533;SDS011;2789;51.902;7.636;2022-08-01T05:36:50;4.40;;;3.53;;
5533;SDS011;2789;51.902;7.636;2022-08-01T05:37:58;4.57;;;3.03;;
5533;SDS011;2789;51.902;7.636;2022-08-01T05:38:59;4.43;;;3.28;;
5533;SDS011;2789;51.902;7.636;2022-08-01T05:40:02;3.55;;;2.90;;
5533;SDS011;2789;51.902;7.636;2022-08-01T05:41:06;3.97;;;3.10;;
5533;SDS011;2789;51.902;7.636;2022-08-01T05:42:08;3.22;;;2.53;;
5533;SDS011;2789;51.902;7.636;2022-08-01T05:43:11;5.55;;;3.05;;
5533;SDS011;2789;51.902;7.636;2022-08-01T05:44:12;5.20;;;3.80;;
5533;SDS011;2789;51.902;7.636;2022-08-01T05:45:15;5.20;;;2.63;;
5533;SDS011;2789;51.902;7.636;2022-08-01T05:46:17;4.68;;;3.40;;
5533;SDS011;2789;51.902;7.636;2022-08-01T05:47:19;4.88;;;2.95;;
5533;SDS011;2789;51.902;7.636;2022-08-01T05:48:21;5.55;;;2.78;;
5533;SDS011;2789;51.902;7.636;2022-08-01T05:49:24;4.10;;;2.85;;
5533;SDS011;2789;51.902;7.636;2022-08-01T05:50:26;4.18;;;3.17;;
5533;SDS011;2789;51.902;7.636;2022-08-01T05:51:28;3.33;;;2.85;;
5533;SDS011;2789;51.902;7.636;2022-08-01T05:52:32;4.57;;;2.65;;
5533;SDS011;2789;51.902;7.636;2022-08-01T05:53:34;3.45;;;2.55;;
5533;SDS011;2789;51.902;7.636;2022-08-01T05:54:37;7.78;;;3.22;;
5533;SDS011;2789;51.902;7.636;2022-08-01T05:55:40;2.95;;;2.53;;
5533;SDS011;2789;51.902;7.636;2022-08-01T05:56:43;4.65;;;2.70;;
5533;SDS011;2789;51.902;7.636;2022-08-01T05:57:45;3.17;;;2.75;;
5533;SDS011;2789;51.902;7.636;2022-08-01T05:58:48;3.58;;;2.83;;
5533;SDS011;2789;51.902;7.636;2022-08-01T05:59:50;4.78;;;2.88;;
5533;SDS011;2789;51.902;7.636;2022-08-01T06:00:53;3.58;;;2.80;;
5533;SDS011;2789;51.902;7.636;2022-08-01T06:01:54;2.95;;;2.63;;
5533;SDS011;2789;51.902;7.636;2022-08-01T06:02:57;4.20;;;2.88;;
5533;SDS011;2789;51.902;7.636;2022-08-01T06:03:59;4.45;;;2.97;;
5533;SDS011;2789;51.902;7.636;2022-08-01T06:05:01;4.25;;;2.70;;
5533;SDS011;2789;51.902;7.636;2022-08-01T06:06:03;3.05;;;2.50;;
5533;SDS011;2789;51.902;7.636;2022-08-01T06:07:06;2.97;;;2.67;;
5533;SDS011;2789;51.902;7.636;2022-08-01T06:08:10;4.00;;;2.90;;
5533;SDS011;2789;51.902;7.636;2022-08-01T06:09:12;2.95;;;2.45;;
5533;SDS011;2789;51.902;7.636;2022-08-01T06:10:14;4.47;;;3.28;;
5533;SDS011;2789;51.902;7.636;2022-08-01T06:11:16;4.00;;;2.50;;
5533;SDS011;2789;51.902;7.636;2022-08-01T06:12:19;3.05;;;2.60;;
5533;SDS011;2789;51.902;7.636;2022-08-01T06:13:20;3.30;;;2.42;;
5533;SDS011;2789;51.902;7.636;2022-08-01T06:14:23;4.80;;;2.70;;
5533;SDS011;2789;51.902;7.636;2022-08-01T06:15:26;3.50;;;3.00;;
5533;SDS011;2789;51.902;7.636;2022-08-01T06:16:27;3.35;;;2.88;;
5533;SDS011;2789;51.902;7.636;2022-08-01T06:17:30;4.63;;;3.13;;
5533;SDS011;2789;51.902;7.636;2022-08-01T06:18:31;4.35;;;2.90;;
5533;SDS011;2789;51.902;7.636;2022-08-01T06:19:34;7.07;;;3.30;;
5533;SDS011;2789;51.902;7.636;2022-08-01T06:20:36;4.95;;;2.38;;
5533;SDS011;2789;51.902;7.636;2022-08-01T06:21:39;4.55;;;2.92;;
5533;SDS011;2789;51.902;7.636;2022-08-01T06:22:40;7.60;;;3.00;;
5533;SDS011;2789;51.902;7.636;2022-08-01T06:23:44;4.60;;;2.50;;
5533;SDS011;2789;51.902;7.636;2022-08-01T06:24:46;4.68;;;2.88;;
5533;SDS011;2789;51.902;7.636;2022-08-01T06:25:51;6.03;;;3.33;;
5533;SDS011;2789;51.902;7.636;2022-08-01T06:26:54;5.65;;;3.38;;
5533;SDS011;2789;51.902;7.636;2022-08-01T06:27:57;4.72;;;3.30;;
5533;SDS011;2789;51.902;7.636;2022-08-01T06:28:58;3.55;;;3.25;;
5533;SDS011;2789;51.902;7.636;2022-08-01T06:30:01;5.53;;;3.20;;
5533;SDS011;2789;51.902;7.636;2022-08-01T06:31:02;5.95;;;4.38;;
5533;SDS011;2789;51.902;7.636;2022-08-01T06:32:05;5.60;;;3.20;;
5533;SDS011;2789;51.902;7.636;2022-08-01T06:33:08;4.65;;;3.33;;
5533;SDS011;2789;51.902;7.636;2022-08-01T06:34:11;3.83;;;3.15;;
5533;SDS011;2789;51.902;7.636;2022-08-01T06:35:12;4.88;;;3.03;;
5533;SDS011;2789;51.902;7.636;2022-08-01T06:36:15;3.53;;;2.72;;